sensor_id;sensor_type;location;lat;lon;timestamp;pressure;altitude;pressure_sealevel;temperature;humidity
65534;BME280;53640;55.838;37.184;2023-08-07T00:01:09;99131.63;;;22.95;46.85
65534;BME280;53640;55.838;37.184;2023-08-07T00:03:35;99122.53;;;22.81;46.88
65534;BME280;53640;55.838;37.184;2023-08-07T00:06:02;99117.00;;;22.81;47.21
65534;BME280;53640;55.838;37.184;2023-08-07T00:08:28;99125.28;;;22.81;46.91
65534;BME280;53640;55.838;37.184;2023-08-07T00:11:10;99089.03;;;22.55;46.55
65534;BME280;53640;55.838;37.184;2023-08-07T00:13:36;99088.72;;;22.56;47.20
65534;BME280;53640;55.838;37.184;2023-08-07T00:16:03;99111.63;;;22.71;46.74
65534;BME280;53640;55.838;37.184;2023-08-07T00:18:30;99043.53;;;22.25;46.64
65534;BME280;53640;55.838;37.184;2023-08-07T00:20:56;99122.06;;;22.74;47.01
65534;BME280;53640;55.838;37.184;2023-08-07T00:23:23;99099.16;;;22.46;47.02
65534;BME280;53640;55.838;37.184;2023-08-07T00:25:49;99106.72;;;22.54;47.10
65534;BME280;53640;55.838;37.184;2023-08-07T00:28:16;99108.75;;;22.48;47.07
65534;BME280;53640;55.838;37.184;2023-08-07T00:30:42;99130.25;;;22.65;47.11
65534;BME280;53640;55.838;37.184;2023-08-07T00:33:09;99090.72;;;22.37;47.05
65534;BME280;53640;55.838;37.184;2023-08-07T00:35:35;99138.31;;;22.62;47.06
65534;BME280;53640;55.838;37.184;2023-08-07T00:38:02;99130.09;;;22.56;47.68
65534;BME280;53640;55.838;37.184;2023-08-07T00:40:36;99106.78;;;22.35;47.20
65534;BME280;53640;55.838;37.184;2023-08-07T00:43:03;99096.84;;;22.34;47.48
65534;BME280;53640;55.838;37.184;2023-08-07T00:45:35;99097.97;;;22.33;47.32
65534;BME280;53640;55.838;37.184;2023-08-07T00:48:04;99129.28;;;22.56;47.37
65534;BME280;53640;55.838;37.184;2023-08-07T00:50:30;99127.44;;;22.51;47.51
65534;BME280;53640;55.838;37.184;2023-08-07T00:52:57;99092.63;;;22.23;47.20
65534;BME280;53640;55.838;37.184;2023-08-07T00:55:24;99118.25;;;22.42;47.69
65534;BME280;53640;55.838;37.184;2023-08-07T00:57:51;99106.56;;;22.31;47.65
65534;BME280;53640;55.838;37.184;2023-08-07T01:00:17;99136.91;;;22.45;47.51
65534;BME280;53640;55.838;37.184;2023-08-07T01:02:44;99120.03;;;22.33;47.82
65534;BME280;53640;55.838;37.184;2023-08-07T01:05:11;99123.59;;;22.33;47.60
65534;BME280;53640;55.838;37.184;2023-08-07T01:07:37;99103.16;;;22.21;47.49
65534;BME280;53640;55.838;37.184;2023-08-07T01:10:04;99124.97;;;22.36;47.61
65534;BME280;53640;55.838;37.184;2023-08-07T01:12:42;99089.38;;;22.21;47.75
65534;BME280;53640;55.838;37.184;2023-08-07T01:15:16;99071.13;;;22.06;47.92
65534;BME280;53640;55.838;37.184;2023-08-07T01:17:47;99096.59;;;22.17;47.61
65534;BME280;53640;55.838;37.184;2023-08-07T01:20:14;99090.06;;;22.13;47.85
65534;BME280;53640;55.838;37.184;2023-08-07T01:22:40;99103.16;;;22.21;47.81
65534;BME280;53640;55.838;37.184;2023-08-07T01:25:07;99071.72;;;22.03;47.41
65534;BME280;53640;55.838;37.184;2023-08-07T01:27:36;99108.06;;;22.24;47.85
65534;BME280;53640;55.838;37.184;2023-08-07T01:30:11;99119.59;;;22.26;47.84
65534;BME280;53640;55.838;37.184;2023-08-07T01:32:49;99108.34;;;22.22;47.46
65534;BME280;53640;55.838;37.184;2023-08-07T01:35:22;99078.63;;;22.00;48.20
65534;BME280;53640;55.838;37.184;2023-08-07T01:37:55;99069.06;;;21.98;47.94
65534;BME280;53640;55.838;37.184;2023-08-07T01:40:23;99071.00;;;21.97;47.98
65534;BME280;53640;55.838;37.184;2023-08-07T01:42:49;99103.75;;;22.18;47.72
65534;BME280;53640;55.838;37.184;2023-08-07T01:45:26;99096.88;;;22.15;47.82
65534;BME280;53640;55.838;37.184;2023-08-07T01:47:53;99072.31;;;22.00;47.79
65534;BME280;53640;55.838;37.184;2023-08-07T01:50:21;99068.84;;;21.94;48.22
65534;BME280;53640;55.838;37.184;2023-08-07T01:52:47;99078.84;;;22.04;48.06
65534;BME280;53640;55.838;37.184;2023-08-07T01:55:15;99095.00;;;22.10;47.81
65534;BME280;53640;55.838;37.184;2023-08-07T01:57:49;99050.50;;;21.84;48.15
65534;BME280;53640;55.838;37.184;2023-08-07T02:00:16;99039.38;;;21.76;48.16
65534;BME280;53640;55.838;37.184;2023-08-07T02:02:42;99061.75;;;21.88;48.15
65534;BME280;53640;55.838;37.184;2023-08-07T02:05:10;99088.56;;;22.01;48.43
65534;BME280;53640;55.838;37.184;2023-08-07T02:07:37;99093.47;;;22.04;48.51
65534;BME280;53640;55.838;37.184;2023-08-07T02:10:03;99055.00;;;21.80;48.55
65534;BME280;53640;55.838;37.184;2023-08-07T02:12:32;99084.25;;;21.95;48.44
65534;BME280;53640;55.838;37.184;2023-08-07T02:15:03;99069.66;;;21.76;48.76
65534;BME280;53640;55.838;37.184;2023-08-07T02:17:35;99076.75;;;21.82;48.90
65534;BME280;53640;55.838;37.184;2023-08-07T02:20:06;99080.91;;;21.79;48.95
65534;BME280;53640;55.838;37.184;2023-08-07T02:22:32;99102.19;;;21.93;48.72
65534;BME280;53640;55.838;37.184;2023-08-07T02:24:59;99077.13;;;21.75;49.13
65534;BME280;53640;55.838;37.184;2023-08-07T02:27:25;99069.81;;;21.66;48.88
65534;BME280;53640;55.838;37.184;2023-08-07T02:29:51;99071.16;;;21.68;48.74
65534;BME280;53640;55.838;37.184;2023-08-07T02:32:18;99077.63;;;21.77;49.09
65534;BME280;53640;55.838;37.184;2023-08-07T02:34:44;99075.19;;;21.76;49.20
65534;BME280;53640;55.838;37.184;2023-08-07T02:37:11;99097.06;;;21.86;48.79
65534;BME280;53640;55.838;37.184;2023-08-07T02:39:37;99075.78;;;21.73;48.84
65534;BME280;53640;55.838;37.184;2023-08-07T02:42:04;99070.41;;;21.62;49.31
65534;BME280;53640;55.838;37.184;2023-08-07T02:44:30;99055.53;;;21.63;49.17
65534;BME280;53640;55.838;37.184;2023-08-07T02:46:56;99058.88;;;21.60;48.78
65534;BME280;53640;55.838;37.184;2023-08-07T02:49:23;99093.56;;;21.80;49.59
65534;BME280;53640;55.838;37.184;2023-08-07T02:51:49;99090.81;;;21.80;49.34
65534;BME280;53640;55.838;37.184;2023-08-07T02:54:15;99093.06;;;21.78;49.59
65534;BME280;53640;55.838;37.184;2023-08-07T02:56:42;99073.91;;;21.68;49.69
65534;BME280;53640;55.838;37.184;2023-08-07T02:59:08;99100.47;;;21.78;49.64
65534;BME280;53640;55.838;37.184;2023-08-07T03:01:35;99062.78;;;21.59;49.64
65534;BME280;53640;55.838;37.184;2023-08-07T03:04:01;99052.56;;;21.60;49.63
65534;BME280;53640;55.838;37.184;2023-08-07T03:06:27;99096.53;;;21.84;49.21
65534;BME280;53640;55.838;37.184;2023-08-07T03:08:54;99073.09;;;21.68;49.71
65534;BME280;53640;55.838;37.184;2023-08-07T03:11:20;99090.53;;;21.82;49.21
65534;BME280;53640;55.838;37.184;2023-08-07T03:13:47;99092.38;;;21.86;49.20
65534;BME280;53640;55.838;37.184;2023-08-07T03:16:15;99044.06;;;21.56;49.30
65534;BME280;53640;55.838;37.184;2023-08-07T03:18:41;99062.31;;;21.71;48.91
65534;BME280;53640;55.838;37.184;2023-08-07T03:21:07;99052.69;;;21.69;49.34
65534;BME280;53640;55.838;37.184;2023-08-07T03:23:34;99051.06;;;21.68;49.14
65534;BME280;53640;55.838;37.184;2023-08-07T03:26:09;99068.75;;;21.80;49.14
65534;BME280;53640;55.838;37.184;2023-08-07T03:28:38;99067.56;;;21.86;49.33
65534;BME280;53640;55.838;37.184;2023-08-07T03:31:05;99083.13;;;21.96;49.15
65534;BME280;53640;55.838;37.184;2023-08-07T03:33:34;99052.16;;;21.85;49.08
65534;BME280;53640;55.838;37.184;2023-08-07T03:36:01;99092.03;;;22.07;49.34
65534;BME280;53640;55.838;37.184;2023-08-07T03:38:28;99081.09;;;22.02;48.81
65534;BME280;53640;55.838;37.184;2023-08-07T03:40:56;99068.31;;;21.92;49.02
65534;BME280;53640;55.838;37.184;2023-08-07T03:43:23;99064.94;;;21.95;48.95
65534;BME280;53640;55.838;37.184;2023-08-07T03:45:54;99071.22;;;22.01;48.98
65534;BME280;53640;55.838;37.184;2023-08-07T03:48:22;99063.53;;;21.98;48.69
65534;BME280;53640;55.838;37.184;2023-08-07T03:50:48;99063.44;;;22.03;48.81
65534;BME280;53640;55.838;37.184;2023-08-07T03:53:16;99076.28;;;22.13;48.80
65534;BME280;53640;55.838;37.184;2023-08-07T03:55:54;99071.22;;;22.01;48.57
65534;BME280;53640;55.838;37.184;2023-08-07T03:58:23;99078.84;;;22.23;48.74
65534;BME280;53640;55.838;37.184;2023-08-07T04:00:50;99060.69;;;22.03;48.50
65534;BME280;53640;55.838;37.184;2023-08-07T04:03:21;99065.81;;;22.09;48.49
65534;BME280;53640;55.838;37.184;2023-08-07T04:05:51;99064.66;;;22.16;48.49
65534;BME280;53640;55.838;37.184;2023-08-07T04:08:18;99087.97;;;22.37;48.23
65534;BME280;53640;55.838;37.184;2023-08-07T04:10:45;99082.44;;;22.37;48.56
65534;BME280;53640;55.838;37.184;2023-08-07T04:13:12;99080.13;;;22.44;48.09
65534;BME280;53640;55.838;37.184;2023-08-07T04:15:38;99059.97;;;22.30;48.12
65534;BME280;53640;55.838;37.184;2023-08-07T04:18:05;99044.13;;;22.22;47.99
65534;BME280;53640;55.838;37.184;2023-08-07T04:20:31;99062.44;;;22.45;48.25
65534;BME280;53640;55.838;37.184;2023-08-07T04:22:58;99085.28;;;22.65;47.87
65534;BME280;53640;55.838;37.184;2023-08-07T04:25:25;99071.34;;;22.56;47.77
65534;BME280;53640;55.838;37.184;2023-08-07T04:27:51;99024.44;;;22.28;47.26
65534;BME280;53640;55.838;37.184;2023-08-07T04:30:17;99052.34;;;22.54;47.58
65534;BME280;53640;55.838;37.184;2023-08-07T04:32:44;99052.97;;;22.51;47.38
65534;BME280;53640;55.838;37.184;2023-08-07T04:35:10;99085.91;;;22.75;47.28
65534;BME280;53640;55.838;37.184;2023-08-07T04:37:36;99052.25;;;22.59;47.33
65534;BME280;53640;55.838;37.184;2023-08-07T04:40:03;99007.56;;;22.30;47.14
65534;BME280;53640;55.838;37.184;2023-08-07T04:42:30;99091.13;;;22.91;46.77
65534;BME280;53640;55.838;37.184;2023-08-07T04:44:58;99055.25;;;22.77;46.62
65534;BME280;53640;55.838;37.184;2023-08-07T04:47:24;99079.19;;;22.95;46.80
65534;BME280;53640;55.838;37.184;2023-08-07T04:49:51;98985.53;;;22.44;46.47
65534;BME280;53640;55.838;37.184;2023-08-07T04:52:17;99052.19;;;22.92;46.19
65534;BME280;53640;55.838;37.184;2023-08-07T04:54:43;99061.69;;;23.00;46.29
65534;BME280;53640;55.838;37.184;2023-08-07T04:57:12;99074.84;;;23.17;46.19
65534;BME280;53640;55.838;37.184;2023-08-07T04:59:38;99085.06;;;23.30;45.83
65534;BME280;53640;55.838;37.184;2023-08-07T05:02:05;99065.41;;;23.31;45.65
65534;BME280;53640;55.838;37.184;2023-08-07T05:04:31;99080.47;;;23.39;45.70
65534;BME280;53640;55.838;37.184;2023-08-07T05:06:58;99037.03;;;23.17;45.37
65534;BME280;53640;55.838;37.184;2023-08-07T05:09:24;99054.81;;;23.39;44.99
65534;BME280;53640;55.838;37.184;2023-08-07T05:11:51;99069.22;;;23.49;45.22
65534;BME280;53640;55.838;37.184;2023-08-07T05:14:17;99067.44;;;23.53;45.06
65534;BME280;53640;55.838;37.184;2023-08-07T05:16:47;99006.47;;;23.14;44.93
65534;BME280;53640;55.838;37.184;2023-08-07T05:19:25;98961.72;;;22.89;44.58
65534;BME280;53640;55.838;37.184;2023-08-07T05:21:54;98949.13;;;22.83;44.66
65534;BME280;53640;55.838;37.184;2023-08-07T05:24:24;99004.91;;;23.21;44.58
65534;BME280;53640;55.838;37.184;2023-08-07T05:26:50;99026.38;;;23.38;44.28
65534;BME280;53640;55.838;37.184;2023-08-07T05:29:17;99019.00;;;23.47;44.21
65534;BME280;53640;55.838;37.184;2023-08-07T05:31:43;99011.50;;;23.48;44.16
65534;BME280;53640;55.838;37.184;2023-08-07T05:34:10;99049.03;;;23.85;43.66
65534;BME280;53640;55.838;37.184;2023-08-07T05:36:36;99026.97;;;23.94;44.01
65534;BME280;53640;55.838;37.184;2023-08-07T05:39:04;99023.88;;;23.95;43.45
65534;BME280;53640;55.838;37.184;2023-08-07T05:41:30;98958.31;;;23.65;43.32
65534;BME280;53640;55.838;37.184;2023-08-07T05:43:57;98973.06;;;23.60;42.49
65534;BME280;53640;55.838;37.184;2023-08-07T05:46:26;99017.69;;;24.12;41.73
65534;BME280;53640;55.838;37.184;2023-08-07T05:48:53;99016.16;;;24.06;41.29
65534;BME280;53640;55.838;37.184;2023-08-07T05:51:19;99043.13;;;24.23;41.28
65534;BME280;53640;55.838;37.184;2023-08-07T05:53:46;99011.97;;;24.09;41.23
65534;BME280;53640;55.838;37.184;2023-08-07T05:56:12;99029.78;;;24.25;40.33
65534;BME280;53640;55.838;37.184;2023-08-07T05:58:38;99016.50;;;24.36;40.86
65534;BME280;53640;55.838;37.184;2023-08-07T06:01:05;99023.84;;;24.40;40.41
65534;BME280;53640;55.838;37.184;2023-08-07T06:03:32;99009.88;;;24.45;40.52
65534;BME280;53640;55.838;37.184;2023-08-07T06:05:58;98984.03;;;24.19;39.48
65534;BME280;53640;55.838;37.184;2023-08-07T06:08:28;99049.06;;;24.70;39.68
65534;BME280;53640;55.838;37.184;2023-08-07T06:10:55;98969.66;;;24.39;39.62
65534;BME280;53640;55.838;37.184;2023-08-07T06:13:21;99036.75;;;24.93;39.51
65534;BME280;53640;55.838;37.184;2023-08-07T06:15:47;99029.78;;;24.96;39.68
65534;BME280;53640;55.838;37.184;2023-08-07T06:18:14;99033.53;;;25.09;39.70
65534;BME280;53640;55.838;37.184;2023-08-07T06:20:43;99002.25;;;24.99;39.21
65534;BME280;53640;55.838;37.184;2023-08-07T06:23:10;98984.66;;;25.04;39.60
65534;BME280;53640;55.838;37.184;2023-08-07T06:25:37;98923.88;;;24.82;38.68
65534;BME280;53640;55.838;37.184;2023-08-07T06:28:04;99054.88;;;25.74;38.14
65534;BME280;53640;55.838;37.184;2023-08-07T06:33:49;98899.63;;;25.31;37.39
65534;BME280;53640;55.838;37.184;2023-08-07T06:36:23;99015.63;;;26.19;36.75
65534;BME280;53640;55.838;37.184;2023-08-07T06:38:51;98989.56;;;26.03;36.59
65534;BME280;53640;55.838;37.184;2023-08-07T06:41:18;98931.19;;;25.90;36.36
65534;BME280;53640;55.838;37.184;2023-08-07T06:43:50;98915.38;;;25.73;36.41
65534;BME280;53640;55.838;37.184;2023-08-07T06:46:17;98913.47;;;25.74;35.74
65534;BME280;53640;55.838;37.184;2023-08-07T06:48:53;98975.53;;;25.99;35.00
65534;BME280;53640;55.838;37.184;2023-08-07T06:51:20;98936.41;;;25.83;35.75
65534;BME280;53640;55.838;37.184;2023-08-07T06:53:46;99013.66;;;26.37;35.67
65534;BME280;53640;55.838;37.184;2023-08-07T06:56:12;99001.56;;;26.24;35.61
65534;BME280;53640;55.838;37.184;2023-08-07T06:58:39;98970.28;;;26.06;35.73
65534;BME280;53640;55.838;37.184;2023-08-07T07:01:10;98958.75;;;25.95;35.93
65534;BME280;53640;55.838;37.184;2023-08-07T07:03:42;98905.94;;;25.66;35.28
65534;BME280;53640;55.838;37.184;2023-08-07T07:06:20;98945.56;;;25.75;35.45
65534;BME280;53640;55.838;37.184;2023-08-07T07:08:47;98940.84;;;25.84;35.34
65534;BME280;53640;55.838;37.184;2023-08-07T07:11:14;98976.38;;;26.00;35.39
65534;BME280;53640;55.838;37.184;2023-08-07T07:13:44;98966.94;;;25.83;34.98
65534;BME280;53640;55.838;37.184;2023-08-07T07:16:10;98901.22;;;25.58;34.58
65534;BME280;53640;55.838;37.184;2023-08-07T07:18:39;99022.31;;;26.27;34.94
65534;BME280;53640;55.838;37.184;2023-08-07T07:21:06;98927.13;;;25.70;34.81
65534;BME280;53640;55.838;37.184;2023-08-07T07:23:32;98888.84;;;25.55;35.01
65534;BME280;53640;55.838;37.184;2023-08-07T07:25:59;98994.44;;;26.06;35.25
65534;BME280;53640;55.838;37.184;2023-08-07T07:28:31;98944.06;;;25.95;34.66
65534;BME280;53640;55.838;37.184;2023-08-07T07:30:58;98923.22;;;25.71;34.77
65534;BME280;53640;55.838;37.184;2023-08-07T07:33:24;98915.34;;;26.00;34.95
65534;BME280;53640;55.838;37.184;2023-08-07T07:35:53;98948.00;;;25.85;34.59
65534;BME280;53640;55.838;37.184;2023-08-07T07:38:23;98910.34;;;25.67;35.11
65534;BME280;53640;55.838;37.184;2023-08-07T07:40:49;99000.91;;;26.36;34.60
65534;BME280;53640;55.838;37.184;2023-08-07T07:43:15;98964.84;;;26.27;34.55
65534;BME280;53640;55.838;37.184;2023-08-07T07:46:13;99004.72;;;26.61;34.07
65534;BME280;53640;55.838;37.184;2023-08-07T07:49:12;98993.38;;;26.45;33.62
65534;BME280;53640;55.838;37.184;2023-08-07T07:51:50;98930.47;;;26.11;33.89
65534;BME280;53640;55.838;37.184;2023-08-07T07:54:28;98963.94;;;26.53;32.84
65534;BME280;53640;55.838;37.184;2023-08-07T08:08:01;98966.53;;;26.58;32.78
65534;BME280;53640;55.838;37.184;2023-08-07T08:11:44;98901.25;;;26.13;32.82
65534;BME280;53640;55.838;37.184;2023-08-07T08:14:45;98866.47;;;26.16;33.02
65534;BME280;53640;55.838;37.184;2023-08-07T08:17:19;98882.06;;;26.29;32.99
65534;BME280;53640;55.838;37.184;2023-08-07T08:19:52;99015.22;;;27.14;32.47
65534;BME280;53640;55.838;37.184;2023-08-07T08:22:36;98868.41;;;26.54;32.08
65534;BME280;53640;55.838;37.184;2023-08-07T08:28:53;98936.75;;;27.17;31.86
65534;BME280;53640;55.838;37.184;2023-08-07T08:31:22;98900.28;;;27.19;32.14
65534;BME280;53640;55.838;37.184;2023-08-07T08:33:55;98857.47;;;27.20;31.18
65534;BME280;53640;55.838;37.184;2023-08-07T08:36:23;98986.41;;;28.03;31.15
65534;BME280;53640;55.838;37.184;2023-08-07T08:38:52;98967.50;;;28.08;30.78
65534;BME280;53640;55.838;37.184;2023-08-07T08:41:19;98918.19;;;27.97;30.77
65534;BME280;53640;55.838;37.184;2023-08-07T08:43:48;98945.28;;;28.33;30.67
65534;BME280;53640;55.838;37.184;2023-08-07T08:46:16;98954.00;;;28.68;29.97
65534;BME280;53640;55.838;37.184;2023-08-07T08:48:52;98937.06;;;28.61;30.30
65534;BME280;53640;55.838;37.184;2023-08-07T08:51:25;98938.28;;;28.88;30.07
65534;BME280;53640;55.838;37.184;2023-08-07T08:53:53;98937.69;;;29.19;30.28
65534;BME280;53640;55.838;37.184;2023-08-07T08:56:23;98941.78;;;29.50;29.74
65534;BME280;53640;55.838;37.184;2023-08-07T08:58:50;98938.75;;;29.71;28.43
65534;BME280;53640;55.838;37.184;2023-08-07T09:01:19;98905.44;;;29.62;27.57
65534;BME280;53640;55.838;37.184;2023-08-07T09:03:46;98936.72;;;29.84;27.37
65534;BME280;53640;55.838;37.184;2023-08-07T09:06:13;98892.13;;;29.71;28.10
65534;BME280;53640;55.838;37.184;2023-08-07T09:08:42;98931.72;;;30.05;27.91
65534;BME280;53640;55.838;37.184;2023-08-07T09:11:10;98940.66;;;30.11;28.27
65534;BME280;53640;55.838;37.184;2023-08-07T09:13:37;98918.22;;;30.23;28.17
65534;BME280;53640;55.838;37.184;2023-08-07T09:16:09;98844.97;;;29.98;27.81
65534;BME280;53640;55.838;37.184;2023-08-07T09:18:36;98889.28;;;30.47;26.72
65534;BME280;53640;55.838;37.184;2023-08-07T09:21:03;98930.59;;;30.73;27.11
65534;BME280;53640;55.838;37.184;2023-08-07T09:23:30;98967.19;;;30.99;26.49
65534;BME280;53640;55.838;37.184;2023-08-07T09:26:02;98917.78;;;30.88;26.44
65534;BME280;53640;55.838;37.184;2023-08-07T09:28:32;98918.94;;;31.03;26.35
65534;BME280;53640;55.838;37.184;2023-08-07T09:30:59;98906.50;;;31.19;26.19
65534;BME280;53640;55.838;37.184;2023-08-07T09:33:26;98912.69;;;31.29;25.98
65534;BME280;53640;55.838;37.184;2023-08-07T09:35:57;98921.09;;;31.48;25.51
65534;BME280;53640;55.838;37.184;2023-08-07T09:38:28;98931.91;;;31.69;25.39
65534;BME280;53640;55.838;37.184;2023-08-07T09:40:57;98922.53;;;31.81;25.08
65534;BME280;53640;55.838;37.184;2023-08-07T09:43:24;98917.06;;;31.88;24.77
65534;BME280;53640;55.838;37.184;2023-08-07T09:45:52;98900.13;;;31.81;25.02
65534;BME280;53640;55.838;37.184;2023-08-07T09:48:24;98924.16;;;32.05;24.37
65534;BME280;53640;55.838;37.184;2023-08-07T09:50:51;98908.34;;;31.93;24.65
65534;BME280;53640;55.838;37.184;2023-08-07T09:53:18;98910.13;;;32.24;24.68
65534;BME280;53640;55.838;37.184;2023-08-07T09:55:52;98895.84;;;32.33;24.51
65534;BME280;53640;55.838;37.184;2023-08-07T09:58:19;98886.84;;;32.43;23.75
65534;BME280;53640;55.838;37.184;2023-08-07T10:00:46;98892.63;;;32.57;23.72
65534;BME280;53640;55.838;37.184;2023-08-07T10:03:14;98859.53;;;32.66;23.48
65534;BME280;53640;55.838;37.184;2023-08-07T10:05:42;98880.31;;;32.88;23.39
65534;BME280;53640;55.838;37.184;2023-08-07T10:08:11;98888.50;;;33.04;23.58
65534;BME280;53640;55.838;37.184;2023-08-07T10:10:38;98871.97;;;33.26;23.47
65534;BME280;53640;55.838;37.184;2023-08-07T10:13:07;98901.72;;;33.68;23.21
65534;BME280;53640;55.838;37.184;2023-08-07T10:15:33;98855.00;;;33.49;23.36
65534;BME280;53640;55.838;37.184;2023-08-07T10:18:03;98853.50;;;33.62;22.61
65534;BME280;53640;55.838;37.184;2023-08-07T10:20:30;98889.53;;;33.90;21.92
65534;BME280;53640;55.838;37.184;2023-08-07T10:23:00;98868.94;;;33.79;21.83
65534;BME280;53640;55.838;37.184;2023-08-07T10:25:35;98887.59;;;33.98;21.85
65534;BME280;53640;55.838;37.184;2023-08-07T10:28:09;98902.50;;;34.05;21.74
65534;BME280;53640;55.838;37.184;2023-08-07T10:30:38;98844.44;;;34.20;21.88
65534;BME280;53640;55.838;37.184;2023-08-07T10:33:05;98824.47;;;34.36;21.58
65534;BME280;53640;55.838;37.184;2023-08-07T10:35:35;98842.50;;;35.01;21.03
65534;BME280;53640;55.838;37.184;2023-08-07T10:38:10;98865.84;;;35.09;21.40
65534;BME280;53640;55.838;37.184;2023-08-07T10:40:59;98872.75;;;35.18;20.92
65534;BME280;53640;55.838;37.184;2023-08-07T10:43:37;98834.09;;;35.04;20.70
65534;BME280;53640;55.838;37.184;2023-08-07T10:46:05;98842.19;;;35.20;20.68
65534;BME280;53640;55.838;37.184;2023-08-07T10:48:38;98830.59;;;35.33;20.28
65534;BME280;53640;55.838;37.184;2023-08-07T10:51:05;98832.19;;;35.30;20.53
65534;BME280;53640;55.838;37.184;2023-08-07T10:56:08;98834.69;;;35.57;19.35
65534;BME280;53640;55.838;37.184;2023-08-07T10:58:37;98828.25;;;35.60;19.55
65534;BME280;53640;55.838;37.184;2023-08-07T11:01:17;98842.72;;;35.62;19.32
65534;BME280;53640;55.838;37.184;2023-08-07T11:03:51;98819.72;;;35.27;19.56
65534;BME280;53640;55.838;37.184;2023-08-07T11:06:22;98777.84;;;35.12;19.63
65534;BME280;53640;55.838;37.184;2023-08-07T11:08:50;98735.97;;;34.85;19.36
65534;BME280;53640;55.838;37.184;2023-08-07T11:11:17;98785.94;;;35.27;19.46
65534;BME280;53640;55.838;37.184;2023-08-07T11:13:44;98720.75;;;35.04;19.69
65534;BME280;53640;55.838;37.184;2023-08-07T11:16:11;98819.34;;;35.54;19.40
65534;BME280;53640;55.838;37.184;2023-08-07T11:18:38;98794.06;;;35.68;19.12
65534;BME280;53640;55.838;37.184;2023-08-07T11:21:08;98729.28;;;35.36;19.73
65534;BME280;53640;55.838;37.184;2023-08-07T11:23:38;98788.81;;;35.88;19.20
65534;BME280;53640;55.838;37.184;2023-08-07T11:26:05;98804.13;;;35.94;18.72
65534;BME280;53640;55.838;37.184;2023-08-07T11:28:31;98774.34;;;35.68;19.45
65534;BME280;53640;55.838;37.184;2023-08-07T11:30:58;98805.72;;;35.85;18.87
65534;BME280;53640;55.838;37.184;2023-08-07T11:33:26;98808.53;;;35.81;18.87
65534;BME280;53640;55.838;37.184;2023-08-07T11:35:54;98800.09;;;35.92;19.00
65534;BME280;53640;55.838;37.184;2023-08-07T11:41:01;98796.47;;;36.13;19.32
65534;BME280;53640;55.838;37.184;2023-08-07T11:43:29;98792.84;;;36.23;19.33
65534;BME280;53640;55.838;37.184;2023-08-07T11:45:57;98770.69;;;36.18;19.34
65534;BME280;53640;55.838;37.184;2023-08-07T11:48:26;98795.63;;;36.44;19.00
65534;BME280;53640;55.838;37.184;2023-08-07T11:50:53;98748.94;;;36.25;19.31
65534;BME280;53640;55.838;37.184;2023-08-07T11:53:21;98752.16;;;36.31;18.60
65534;BME280;53640;55.838;37.184;2023-08-07T11:56:01;98785.97;;;36.38;18.81
65534;BME280;53640;55.838;37.184;2023-08-07T11:58:36;98738.91;;;35.92;19.29
65534;BME280;53640;55.838;37.184;2023-08-07T12:01:09;98765.47;;;36.20;19.98
65534;BME280;53640;55.838;37.184;2023-08-07T12:03:38;98753.78;;;36.25;19.60
65534;BME280;53640;55.838;37.184;2023-08-07T12:06:07;98735.16;;;36.53;19.51
65534;BME280;53640;55.838;37.184;2023-08-07T12:08:38;98719.94;;;36.25;19.08
65534;BME280;53640;55.838;37.184;2023-08-07T12:11:08;98751.25;;;36.63;19.30
65534;BME280;53640;55.838;37.184;2023-08-07T12:13:38;98749.22;;;36.67;18.75
65534;BME280;53640;55.838;37.184;2023-08-07T12:16:05;98741.22;;;36.55;18.86
65534;BME280;53640;55.838;37.184;2023-08-07T12:18:32;98735.91;;;36.67;19.15
65534;BME280;53640;55.838;37.184;2023-08-07T12:21:03;98744.78;;;36.69;19.00
65534;BME280;53640;55.838;37.184;2023-08-07T12:23:33;98728.72;;;36.52;18.90
65534;BME280;53640;55.838;37.184;2023-08-07T12:26:01;98707.06;;;36.31;19.54
65534;BME280;53640;55.838;37.184;2023-08-07T12:28:28;98743.25;;;36.51;19.86
65534;BME280;53640;55.838;37.184;2023-08-07T12:31:00;98703.81;;;36.29;19.13
65534;BME280;53640;55.838;37.184;2023-08-07T12:33:28;98636.69;;;35.92;18.89
65534;BME280;53640;55.838;37.184;2023-08-07T12:35:57;98728.38;;;36.46;19.67
65534;BME280;53640;55.838;37.184;2023-08-07T12:38:24;98637.94;;;35.76;19.00
65534;BME280;53640;55.838;37.184;2023-08-07T12:40:51;98623.50;;;35.71;19.26
65534;BME280;53640;55.838;37.184;2023-08-07T12:43:20;98668.88;;;35.94;19.29
65534;BME280;53640;55.838;37.184;2023-08-07T12:45:47;98653.22;;;35.93;19.79
65534;BME280;53640;55.838;37.184;2023-08-07T12:48:14;98707.13;;;36.10;19.93
65534;BME280;53640;55.838;37.184;2023-08-07T12:50:40;98671.34;;;35.82;19.73
65534;BME280;53640;55.838;37.184;2023-08-07T12:53:10;98658.06;;;35.82;19.24
65534;BME280;53640;55.838;37.184;2023-08-07T12:55:36;98643.97;;;35.82;19.58
65534;BME280;53640;55.838;37.184;2023-08-07T12:58:03;98615.84;;;35.64;19.76
65534;BME280;53640;55.838;37.184;2023-08-07T13:00:29;98596.94;;;35.68;20.11
65534;BME280;53640;55.838;37.184;2023-08-07T13:02:56;98670.50;;;36.03;20.02
65534;BME280;53640;55.838;37.184;2023-08-07T13:05:22;98625.53;;;35.60;20.48
65534;BME280;53640;55.838;37.184;2023-08-07T13:07:49;98627.91;;;35.65;19.95
65534;BME280;53640;55.838;37.184;2023-08-07T13:10:20;98606.19;;;35.69;19.89
65534;BME280;53640;55.838;37.184;2023-08-07T13:12:48;98668.09;;;35.90;20.03
65534;BME280;53640;55.838;37.184;2023-08-07T13:15:16;98631.94;;;35.64;20.04
65534;BME280;53640;55.838;37.184;2023-08-07T13:17:44;98626.69;;;35.66;20.32
65534;BME280;53640;55.838;37.184;2023-08-07T13:20:12;98588.56;;;35.33;20.18
65534;BME280;53640;55.838;37.184;2023-08-07T13:22:41;98579.69;;;34.98;20.24